sensor_id;sensor_type;location;lat;lon;timestamp;P1;durP1;ratioP1;P2;durP2;ratioP2
46006;SDS011;31738;50.188;8.524;2022-12-07T00:01:36;43.10;;;18.77;;
46006;SDS011;31738;50.188;8.524;2022-12-07T00:04:06;50.08;;;19.17;;
46006;SDS011;31738;50.188;8.524;2022-12-07T00:06:34;51.13;;;20.58;;
46006;SDS011;31738;50.188;8.524;2022-12-07T00:09:03;53.50;;;19.20;;
46006;SDS011;31738;50.188;8.524;2022-12-07T00:11:30;50.35;;;19.90;;
46006;SDS011;31738;50.188;8.524;2022-12-07T00:13:57;38.63;;;17.73;;
46006;SDS011;31738;50.188;8.524;2022-12-07T00:16:26;48.47;;;18.98;;
46006;SDS011;31738;50.188;8.524;2022-12-07T00:18:53;39.33;;;16.63;;
46006;SDS011;31738;50.188;8.524;2022-12-07T00:21:20;44.60;;;17.55;;
46006;SDS011;31738;50.188;8.524;2022-12-07T00:23:49;45.75;;;18.08;;
46006;SDS011;31738;50.188;8.524;2022-12-07T00:26:19;50.80;;;19.88;;
46006;SDS011;31738;50.188;8.524;2022-12-07T00:28:50;48.50;;;19.60;;
46006;SDS011;31738;50.188;8.524;2022-12-07T00:31:18;48.13;;;19.42;;
46006;SDS011;31738;50.188;8.524;2022-12-07T00:33:45;45.92;;;19.30;;
46006;SDS011;31738;50.188;8.524;2022-12-07T00:36:12;47.25;;;18.95;;
46006;SDS011;31738;50.188;8.524;2022-12-07T00:38:40;44.05;;;18.10;;
46006;SDS011;31738;50.188;8.524;2022-12-07T00:41:06;45.58;;;18.23;;
46006;SDS011;31738;50.188;8.524;2022-12-07T00:43:35;40.38;;;17.42;;
46006;SDS011;31738;50.188;8.524;2022-12-07T00:46:01;42.70;;;16.98;;
46006;SDS011;31738;50.188;8.524;2022-12-07T00:48:26;38.85;;;15.95;;
46006;SDS011;31738;50.188;8.524;2022-12-07T00:50:52;42.70;;;17.80;;
46006;SDS011;31738;50.188;8.524;2022-12-07T00:53:18;40.55;;;16.65;;
46006;SDS011;31738;50.188;8.524;2022-12-07T00:55:44;41.10;;;16.98;;
46006;SDS011;31738;50.188;8.524;2022-12-07T00:58:10;38.25;;;15.52;;
46006;SDS011;31738;50.188;8.524;2022-12-07T01:00:36;39.17;;;16.70;;
46006;SDS011;31738;50.188;8.524;2022-12-07T01:03:06;40.83;;;15.82;;
46006;SDS011;31738;50.188;8.524;2022-12-07T01:05:33;45.20;;;17.77;;
46006;SDS011;31738;50.188;8.524;2022-12-07T01:07:58;39.38;;;16.95;;
46006;SDS011;31738;50.188;8.524;2022-12-07T01:10:24;44.47;;;17.98;;
46006;SDS011;31738;50.188;8.524;2022-12-07T01:12:50;41.72;;;16.80;;
46006;SDS011;31738;50.188;8.524;2022-12-07T01:15:15;42.00;;;16.40;;
46006;SDS011;31738;50.188;8.524;2022-12-07T01:17:41;43.25;;;17.00;;
46006;SDS011;31738;50.188;8.524;2022-12-07T01:20:07;44.70;;;17.80;;
46006;SDS011;31738;50.188;8.524;2022-12-07T01:22:36;39.60;;;16.50;;
46006;SDS011;31738;50.188;8.524;2022-12-07T01:25:04;49.75;;;18.13;;
46006;SDS011;31738;50.188;8.524;2022-12-07T01:27:30;41.10;;;16.67;;
46006;SDS011;31738;50.188;8.524;2022-12-07T01:29:56;42.75;;;17.17;;
46006;SDS011;31738;50.188;8.524;2022-12-07T01:32:21;41.38;;;16.65;;
46006;SDS011;31738;50.188;8.524;2022-12-07T01:34:50;44.53;;;17.42;;
46006;SDS011;31738;50.188;8.524;2022-12-07T01:37:15;40.28;;;15.73;;
46006;SDS011;31738;50.188;8.524;2022-12-07T01:39:41;39.60;;;16.35;;
46006;SDS011;31738;50.188;8.524;2022-12-07T01:42:10;38.83;;;15.80;;
46006;SDS011;31738;50.188;8.524;2022-12-07T01:47:56;40.10;;;16.02;;
46006;SDS011;31738;50.188;8.524;2022-12-07T01:50:24;40.97;;;16.33;;
46006;SDS011;31738;50.188;8.524;2022-12-07T01:52:53;41.33;;;16.58;;
46006;SDS011;31738;50.188;8.524;2022-12-07T01:55:21;38.88;;;15.52;;
46006;SDS011;31738;50.188;8.524;2022-12-07T01:57:48;39.97;;;16.23;;
46006;SDS011;31738;50.188;8.524;2022-12-07T02:00:17;38.83;;;13.98;;
46006;SDS011;31738;50.188;8.524;2022-12-07T02:02:45;32.63;;;13.25;;
46006;SDS011;31738;50.188;8.524;2022-12-07T02:05:16;36.90;;;14.00;;
46006;SDS011;31738;50.188;8.524;2022-12-07T02:07:43;38.83;;;14.73;;
46006;SDS011;31738;50.188;8.524;2022-12-07T02:10:13;40.22;;;14.85;;
46006;SDS011;31738;50.188;8.524;2022-12-07T02:12:39;39.15;;;14.40;;
46006;SDS011;31738;50.188;8.524;2022-12-07T02:15:06;39.65;;;15.10;;
46006;SDS011;31738;50.188;8.524;2022-12-07T02:20:28;37.78;;;14.75;;
46006;SDS011;31738;50.188;8.524;2022-12-07T02:29:31;43.95;;;16.52;;
46006;SDS011;31738;50.188;8.524;2022-12-07T02:31:34;44.95;;;15.10;;
46006;SDS011;31738;50.188;8.524;2022-12-07T02:34:12;38.92;;;15.45;;
46006;SDS011;31738;50.188;8.524;2022-12-07T02:36:49;36.42;;;14.60;;
46006;SDS011;31738;50.188;8.524;2022-12-07T02:39:20;45.47;;;16.08;;
46006;SDS011;31738;50.188;8.524;2022-12-07T02:41:55;38.88;;;15.43;;
46006;SDS011;31738;50.188;8.524;2022-12-07T02:44:26;35.50;;;13.88;;
46006;SDS011;31738;50.188;8.524;2022-12-07T02:47:01;36.72;;;13.82;;
46006;SDS011;31738;50.188;8.524;2022-12-07T02:49:30;37.38;;;13.98;;
46006;SDS011;31738;50.188;8.524;2022-12-07T02:51:55;37.25;;;14.35;;
46006;SDS011;31738;50.188;8.524;2022-12-07T02:54:21;35.13;;;13.43;;
46006;SDS011;31738;50.188;8.524;2022-12-07T03:15:57;37.78;;;13.73;;
46006;SDS011;31738;50.188;8.524;2022-12-07T03:18:30;35.70;;;13.07;;
46006;SDS011;31738;50.188;8.524;2022-12-07T03:21:01;43.25;;;14.70;;
46006;SDS011;31738;50.188;8.524;2022-12-07T03:27:43;34.25;;;12.88;;
46006;SDS011;31738;50.188;8.524;2022-12-07T03:30:59;36.03;;;13.60;;
46006;SDS011;31738;50.188;8.524;2022-12-07T03:33:12;40.47;;;14.20;;
46006;SDS011;31738;50.188;8.524;2022-12-07T03:35:42;36.90;;;12.82;;
46006;SDS011;31738;50.188;8.524;2022-12-07T03:38:28;36.72;;;13.40;;
46006;SDS011;31738;50.188;8.524;2022-12-07T03:41:03;36.55;;;13.57;;
46006;SDS011;31738;50.188;8.524;2022-12-07T03:43:33;32.92;;;13.13;;
46006;SDS011;31738;50.188;8.524;2022-12-07T03:51:59;30.20;;;12.82;;
46006;SDS011;31738;50.188;8.524;2022-12-07T03:57:02;35.35;;;13.63;;
46006;SDS011;31738;50.188;8.524;2022-12-07T03:59:30;32.15;;;13.57;;
46006;SDS011;31738;50.188;8.524;2022-12-07T04:01:57;36.10;;;14.40;;
46006;SDS011;31738;50.188;8.524;2022-12-07T04:04:27;32.92;;;13.32;;
46006;SDS011;31738;50.188;8.524;2022-12-07T04:06:53;37.78;;;13.70;;
46006;SDS011;31738;50.188;8.524;2022-12-07T04:09:19;34.45;;;13.90;;
46006;SDS011;31738;50.188;8.524;2022-12-07T04:11:46;35.17;;;14.70;;
46006;SDS011;31738;50.188;8.524;2022-12-07T04:14:11;39.55;;;14.05;;
46006;SDS011;31738;50.188;8.524;2022-12-07T04:16:50;34.80;;;14.10;;
46006;SDS011;31738;50.188;8.524;2022-12-07T04:19:32;35.67;;;13.75;;
46006;SDS011;31738;50.188;8.524;2022-12-07T04:21:59;34.95;;;13.70;;
46006;SDS011;31738;50.188;8.524;2022-12-07T04:24:25;35.85;;;13.90;;
46006;SDS011;31738;50.188;8.524;2022-12-07T04:26:51;39.28;;;15.27;;
46006;SDS011;31738;50.188;8.524;2022-12-07T04:29:17;34.10;;;13.85;;
46006;SDS011;31738;50.188;8.524;2022-12-07T04:31:44;36.10;;;14.48;;
46006;SDS011;31738;50.188;8.524;2022-12-07T04:34:10;38.47;;;14.60;;
46006;SDS011;31738;50.188;8.524;2022-12-07T04:36:37;34.90;;;14.00;;
46006;SDS011;31738;50.188;8.524;2022-12-07T04:39:03;34.83;;;14.52;;
46006;SDS011;31738;50.188;8.524;2022-12-07T04:41:30;26.35;;;12.40;;
46006;SDS011;31738;50.188;8.524;2022-12-07T04:43:59;30.48;;;13.15;;
46006;SDS011;31738;50.188;8.524;2022-12-07T04:46:27;28.60;;;12.32;;
46006;SDS011;31738;50.188;8.524;2022-12-07T04:48:55;24.10;;;11.40;;
46006;SDS011;31738;50.188;8.524;2022-12-07T04:51:22;30.38;;;12.77;;
46006;SDS011;31738;50.188;8.524;2022-12-07T04:53:50;25.73;;;11.63;;
46006;SDS011;31738;50.188;8.524;2022-12-07T04:56:16;29.70;;;12.23;;
46006;SDS011;31738;50.188;8.524;2022-12-07T04:58:43;21.52;;;9.80;;
46006;SDS011;31738;50.188;8.524;2022-12-07T05:01:10;26.83;;;12.68;;
46006;SDS011;31738;50.188;8.524;2022-12-07T05:03:36;22.70;;;9.88;;
46006;SDS011;31738;50.188;8.524;2022-12-07T05:06:02;27.90;;;11.82;;
46006;SDS011;31738;50.188;8.524;2022-12-07T05:08:29;28.10;;;11.32;;
46006;SDS011;31738;50.188;8.524;2022-12-07T05:10:54;27.17;;;12.32;;
46006;SDS011;31738;50.188;8.524;2022-12-07T05:13:20;25.58;;;11.65;;
46006;SDS011;31738;50.188;8.524;2022-12-07T05:15:46;27.67;;;12.52;;
46006;SDS011;31738;50.188;8.524;2022-12-07T05:18:13;27.10;;;11.32;;
46006;SDS011;31738;50.188;8.524;2022-12-07T05:20:39;26.67;;;11.77;;
46006;SDS011;31738;50.188;8.524;2022-12-07T05:23:05;27.77;;;13.15;;
46006;SDS011;31738;50.188;8.524;2022-12-07T05:25:31;26.55;;;12.35;;
46006;SDS011;31738;50.188;8.524;2022-12-07T05:27:56;29.40;;;12.38;;
46006;SDS011;31738;50.188;8.524;2022-12-07T05:30:22;31.73;;;13.85;;
46006;SDS011;31738;50.188;8.524;2022-12-07T05:32:48;33.67;;;14.02;;
46006;SDS011;31738;50.188;8.524;2022-12-07T05:35:14;33.85;;;14.07;;
46006;SDS011;31738;50.188;8.524;2022-12-07T05:37:39;34.92;;;13.40;;
46006;SDS011;31738;50.188;8.524;2022-12-07T05:40:05;31.85;;;13.52;;
46006;SDS011;31738;50.188;8.524;2022-12-07T05:42:31;32.72;;;14.02;;
46006;SDS011;31738;50.188;8.524;2022-12-07T05:44:57;27.63;;;12.45;;
46006;SDS011;31738;50.188;8.524;2022-12-07T05:47:22;31.88;;;13.52;;
46006;SDS011;31738;50.188;8.524;2022-12-07T05:49:48;30.13;;;13.07;;
46006;SDS011;31738;50.188;8.524;2022-12-07T05:52:13;33.67;;;13.25;;
46006;SDS011;31738;50.188;8.524;2022-12-07T05:54:39;31.80;;;13.63;;
46006;SDS011;31738;50.188;8.524;2022-12-07T05:57:04;27.90;;;12.60;;
46006;SDS011;31738;50.188;8.524;2022-12-07T05:59:30;28.83;;;12.40;;
46006;SDS011;31738;50.188;8.524;2022-12-07T06:01:59;25.08;;;12.10;;
46006;SDS011;31738;50.188;8.524;2022-12-07T06:04:27;31.52;;;12.90;;
46006;SDS011;31738;50.188;8.524;2022-12-07T06:06:54;25.65;;;12.05;;
46006;SDS011;31738;50.188;8.524;2022-12-07T06:09:20;21.85;;;10.70;;
46006;SDS011;31738;50.188;8.524;2022-12-07T06:11:47;27.30;;;11.05;;
46006;SDS011;31738;50.188;8.524;2022-12-07T06:14:32;23.77;;;11.10;;
46006;SDS011;31738;50.188;8.524;2022-12-07T06:16:58;23.88;;;11.30;;
46006;SDS011;31738;50.188;8.524;2022-12-07T06:19:24;22.20;;;9.77;;
46006;SDS011;31738;50.188;8.524;2022-12-07T06:21:49;20.58;;;9.52;;
46006;SDS011;31738;50.188;8.524;2022-12-07T06:24:15;19.08;;;9.63;;
46006;SDS011;31738;50.188;8.524;2022-12-07T06:26:41;20.65;;;9.35;;
46006;SDS011;31738;50.188;8.524;2022-12-07T06:29:08;18.05;;;8.43;;
46006;SDS011;31738;50.188;8.524;2022-12-07T06:31:33;18.45;;;8.35;;
46006;SDS011;31738;50.188;8.524;2022-12-07T06:34:01;18.15;;;8.43;;
46006;SDS011;31738;50.188;8.524;2022-12-07T06:36:28;18.77;;;8.52;;
46006;SDS011;31738;50.188;8.524;2022-12-07T06:38:54;17.67;;;8.13;;
46006;SDS011;31738;50.188;8.524;2022-12-07T06:41:20;20.60;;;8.75;;
46006;SDS011;31738;50.188;8.524;2022-12-07T06:43:49;18.33;;;9.23;;
46006;SDS011;31738;50.188;8.524;2022-12-07T06:46:15;16.98;;;9.38;;
46006;SDS011;31738;50.188;8.524;2022-12-07T06:48:41;21.40;;;9.65;;
46006;SDS011;31738;50.188;8.524;2022-12-07T06:51:07;20.58;;;10.25;;
46006;SDS011;31738;50.188;8.524;2022-12-07T06:53:33;19.70;;;10.10;;
46006;SDS011;31738;50.188;8.524;2022-12-07T06:55:59;20.60;;;9.90;;
46006;SDS011;31738;50.188;8.524;2022-12-07T06:58:25;20.10;;;9.82;;
46006;SDS011;31738;50.188;8.524;2022-12-07T07:00:50;18.58;;;9.38;;
46006;SDS011;31738;50.188;8.524;2022-12-07T07:03:16;19.48;;;9.80;;
46006;SDS011;31738;50.188;8.524;2022-12-07T07:05:42;23.52;;;9.43;;
46006;SDS011;31738;50.188;8.524;2022-12-07T07:08:09;21.13;;;9.93;;
46006;SDS011;31738;50.188;8.524;2022-12-07T07:10:35;19.83;;;9.63;;
46006;SDS011;31738;50.188;8.524;2022-12-07T07:13:01;24.23;;;11.25;;
46006;SDS011;31738;50.188;8.524;2022-12-07T07:15:26;23.15;;;11.40;;
46006;SDS011;31738;50.188;8.524;2022-12-07T07:17:52;22.63;;;11.13;;
46006;SDS011;31738;50.188;8.524;2022-12-07T07:20:17;21.83;;;10.25;;
46006;SDS011;31738;50.188;8.524;2022-12-07T07:22:43;22.98;;;11.00;;
46006;SDS011;31738;50.188;8.524;2022-12-07T07:25:09;24.10;;;12.00;;
46006;SDS011;31738;50.188;8.524;2022-12-07T07:27:34;25.10;;;11.05;;
46006;SDS011;31738;50.188;8.524;2022-12-07T07:30:00;24.80;;;11.05;;
46006;SDS011;31738;50.188;8.524;2022-12-07T07:32:25;27.10;;;12.05;;
46006;SDS011;31738;50.188;8.524;2022-12-07T07:34:51;30.63;;;11.85;;
46006;SDS011;31738;50.188;8.524;2022-12-07T07:37:16;25.40;;;11.68;;
46006;SDS011;31738;50.188;8.524;2022-12-07T07:39:42;25.75;;;11.60;;
46006;SDS011;31738;50.188;8.524;2022-12-07T07:42:07;25.52;;;11.07;;
46006;SDS011;31738;50.188;8.524;2022-12-07T07:44:36;24.10;;;11.43;;
46006;SDS011;31738;50.188;8.524;2022-12-07T07:47:02;24.27;;;10.80;;
46006;SDS011;31738;50.188;8.524;2022-12-07T07:49:28;25.13;;;11.07;;
46006;SDS011;31738;50.188;8.524;2022-12-07T07:51:54;26.05;;;10.90;;
46006;SDS011;31738;50.188;8.524;2022-12-07T07:54:19;23.35;;;10.93;;
46006;SDS011;31738;50.188;8.524;2022-12-07T07:56:44;23.67;;;10.80;;
46006;SDS011;31738;50.188;8.524;2022-12-07T07:59:10;25.08;;;11.73;;
46006;SDS011;31738;50.188;8.524;2022-12-07T08:01:35;26.10;;;11.15;;
46006;SDS011;31738;50.188;8.524;2022-12-07T08:04:01;24.60;;;11.07;;
46006;SDS011;31738;50.188;8.524;2022-12-07T08:06:26;22.98;;;11.15;;
46006;SDS011;31738;50.188;8.524;2022-12-07T08:08:52;21.20;;;9.90;;
46006;SDS011;31738;50.188;8.524;2022-12-07T08:11:17;22.70;;;9.68;;
46006;SDS011;31738;50.188;8.524;2022-12-07T08:13:46;22.17;;;9.75;;
46006;SDS011;31738;50.188;8.524;2022-12-07T08:16:12;19.33;;;9.77;;
46006;SDS011;31738;50.188;8.524;2022-12-07T08:18:39;20.77;;;10.30;;
46006;SDS011;31738;50.188;8.524;2022-12-07T08:21:07;24.88;;;9.93;;
46006;SDS011;31738;50.188;8.524;2022-12-07T08:23:34;19.05;;;9.93;;
46006;SDS011;31738;50.188;8.524;2022-12-07T08:26:00;17.27;;;8.10;;
46006;SDS011;31738;50.188;8.524;2022-12-07T08:28:28;20.75;;;8.43;;
46006;SDS011;31738;50.188;8.524;2022-12-07T08:31:00;20.15;;;9.45;;
46006;SDS011;31738;50.188;8.524;2022-12-07T08:33:27;21.15;;;9.50;;
46006;SDS011;31738;50.188;8.524;2022-12-07T08:35:52;17.55;;;8.52;;
46006;SDS011;31738;50.188;8.524;2022-12-07T08:38:18;20.65;;;9.10;;
46006;SDS011;31738;50.188;8.524;2022-12-07T08:40:43;18.00;;;9.18;;
46006;SDS011;31738;50.188;8.524;2022-12-07T08:43:09;16.77;;;8.60;;
46006;SDS011;31738;50.188;8.524;2022-12-07T08:45:34;18.58;;;9.40;;
46006;SDS011;31738;50.188;8.524;2022-12-07T08:48:05;15.52;;;8.98;;
46006;SDS011;31738;50.188;8.524;2022-12-07T08:50:35;16.42;;;8.73;;
46006;SDS011;31738;50.188;8.524;2022-12-07T08:53:02;16.73;;;8.88;;
46006;SDS011;31738;50.188;8.524;2022-12-07T08:55:30;19.38;;;9.20;;
46006;SDS011;31738;50.188;8.524;2022-12-07T08:57:57;16.30;;;8.48;;
46006;SDS011;31738;50.188;8.524;2022-12-07T09:00:24;15.07;;;8.13;;
46006;SDS011;31738;50.188;8.524;2022-12-07T09:02:51;18.45;;;7.70;;
46006;SDS011;31738;50.188;8.524;2022-12-07T09:05:16;12.88;;;7.22;;
46006;SDS011;31738;50.188;8.524;2022-12-07T09:07:46;15.13;;;7.80;;
46006;SDS011;31738;50.188;8.524;2022-12-07T09:10:16;18.83;;;8.02;;
46006;SDS011;31738;50.188;8.524;2022-12-07T09:12:42;13.65;;;7.15;;
46006;SDS011;31738;50.188;8.524;2022-12-07T09:15:08;11.90;;;7.00;;
46006;SDS011;31738;50.188;8.524;2022-12-07T09:17:34;14.10;;;7.47;;
46006;SDS011;31738;50.188;8.524;2022-12-07T09:20:01;12.55;;;6.82;;
46006;SDS011;31738;50.188;8.524;2022-12-07T09:22:30;11.07;;;6.40;;
46006;SDS011;31738;50.188;8.524;2022-12-07T09:24:57;10.35;;;6.20;;
46006;SDS011;31738;50.188;8.524;2022-12-07T09:27:23;11.30;;;5.57;;
46006;SDS011;31738;50.188;8.524;2022-12-07T09:29:48;10.60;;;5.68;;
46006;SDS011;31738;50.188;8.524;2022-12-07T09:32:14;15.43;;;5.88;;
46006;SDS011;31738;50.188;8.524;2022-12-07T09:34:39;10.15;;;5.65;;
46006;SDS011;31738;50.188;8.524;2022-12-07T09:37:05;11.60;;;5.97;;
46006;SDS011;31738;50.188;8.524;2022-12-07T09:39:31;12.20;;;6.15;;
46006;SDS011;31738;50.188;8.524;2022-12-07T09:41:58;7.95;;;4.95;;
46006;SDS011;31738;50.188;8.524;2022-12-07T09:44:25;10.35;;;4.78;;
46006;SDS011;31738;50.188;8.524;2022-12-07T09:46:52;8.77;;;4.75;;
46006;SDS011;31738;50.188;8.524;2022-12-07T09:49:19;11.50;;;4.55;;
46006;SDS011;31738;50.188;8.524;2022-12-07T09:51:47;11.63;;;5.10;;
46006;SDS011;31738;50.188;8.524;2022-12-07T09:54:14;12.85;;;5.30;;
46006;SDS011;31738;50.188;8.524;2022-12-07T09:56:42;8.98;;;4.72;;
46006;SDS011;31738;50.188;8.524;2022-12-07T09:59:09;8.70;;;4.63;;
46006;SDS011;31738;50.188;8.524;2022-12-07T10:01:41;10.23;;;5.05;;
46006;SDS011;31738;50.188;8.524;2022-12-07T10:04:17;12.18;;;5.90;;
46006;SDS011;31738;50.188;8.524;2022-12-07T10:06:46;11.73;;;5.90;;
46006;SDS011;31738;50.188;8.524;2022-12-07T10:09:13;10.85;;;5.82;;
46006;SDS011;31738;50.188;8.524;2022-12-07T10:14:52;10.90;;;6.22;;
46006;SDS011;31738;50.188;8.524;2022-12-07T10:17:37;10.90;;;5.15;;
46006;SDS011;31738;50.188;8.524;2022-12-07T10:22:37;10.00;;;4.55;;
46006;SDS011;31738;50.188;8.524;2022-12-07T10:25:16;7.25;;;3.90;;
46006;SDS011;31738;50.188;8.524;2022-12-07T10:27:56;8.95;;;3.80;;
46006;SDS011;31738;50.188;8.524;2022-12-07T10:30:23;11.55;;;4.35;;
46006;SDS011;31738;50.188;8.524;2022-12-07T10:32:49;10.70;;;3.92;;
46006;SDS011;31738;50.188;8.524;2022-12-07T10:37:46;6.45;;;3.67;;
46006;SDS011;31738;50.188;8.524;2022-12-07T10:40:32;6.88;;;3.55;;
46006;SDS011;31738;50.188;8.524;2022-12-07T10:51:27;7.63;;;3.83;;
46006;SDS011;31738;50.188;8.524;2022-12-07T10:56:39;18.95;;;5.38;;
46006;SDS011;31738;50.188;8.524;2022-12-07T11:04:56;11.20;;;4.55;;
46006;SDS011;31738;50.188;8.524;2022-12-07T11:13:44;9.80;;;4.30;;
46006;SDS011;31738;50.188;8.524;2022-12-07T11:21:40;8.90;;;4.75;;
46006;SDS011;31738;50.188;8.524;2022-12-07T11:24:18;9.73;;;4.45;;
46006;SDS011;31738;50.188;8.524;2022-12-07T11:32:20;6.88;;;3.10;;
46006;SDS011;31738;50.188;8.524;2022-12-07T11:37:47;7.80;;;3.78;;
46006;SDS011;31738;50.188;8.524;2022-12-07T11:40:30;9.02;;;4.43;;
46006;SDS011;31738;50.188;8.524;2022-12-07T11:43:02;9.07;;;4.32;;
46006;SDS011;31738;50.188;8.524;2022-12-07T11:45:41;8.52;;;4.18;;
46006;SDS011;31738;50.188;8.524;2022-12-07T11:48:30;10.88;;;4.53;;
46006;SDS011;31738;50.188;8.524;2022-12-07T11:51:00;9.15;;;3.75;;
46006;SDS011;31738;50.188;8.524;2022-12-07T11:53:38;10.52;;;4.20;;
46006;SDS011;31738;50.188;8.524;2022-12-07T11:56:08;10.80;;;4.78;;
46006;SDS011;31738;50.188;8.524;2022-12-07T12:06:39;8.45;;;3.28;;
46006;SDS011;31738;50.188;8.524;2022-12-07T12:09:14;7.38;;;3.55;;
46006;SDS011;31738;50.188;8.524;2022-12-07T12:11:47;11.38;;;3.60;;
46006;SDS011;31738;50.188;8.524;2022-12-07T12:23:09;5.43;;;2.60;;
46006;SDS011;31738;50.188;8.524;2022-12-07T12:25:42;6.55;;;2.38;;
46006;SDS011;31738;50.188;8.524;2022-12-07T12:28:27;7.20;;;2.60;;
46006;SDS011;31738;50.188;8.524;2022-12-07T12:31:04;7.97;;;3.13;;
46006;SDS011;31738;50.188;8.524;2022-12-07T12:47:51;8.07;;;3.00;;
46006;SDS011;31738;50.188;8.524;2022-12-07T12:50:14;8.65;;;3.50;;
46006;SDS011;31738;50.188;8.524;2022-12-07T12:52:55;7.47;;;3.60;;
46006;SDS011;31738;50.188;8.524;2022-12-07T12:56:22;10.80;;;4.80;;
46006;SDS011;31738;50.188;8.524;2022-12-07T13:10:32;5.22;;;3.20;;
46006;SDS011;31738;50.188;8.524;2022-12-07T13:15:34;8.13;;;3.33;;
46006;SDS011;31738;50.188;8.524;2022-12-07T13:20:58;8.45;;;3.20;;
46006;SDS011;31738;50.188;8.524;2022-12-07T13:34:31;8.75;;;2.90;;
46006;SDS011;31738;50.188;8.524;2022-12-07T13:39:33;4.70;;;2.72;;
46006;SDS011;31738;50.188;8.524;2022-12-07T13:42:13;6.45;;;2.72;;
46006;SDS011;31738;50.188;8.524;2022-12-07T13:44:46;4.82;;;2.47;;
46006;SDS011;31738;50.188;8.524;2022-12-07T13:49:48;6.50;;;2.72;;
46006;SDS011;31738;50.188;8.524;2022-12-07T13:52:18;6.15;;;2.75;;
46006;SDS011;31738;50.188;8.524;2022-12-07T13:54:58;5.30;;;2.38;;
46006;SDS011;31738;50.188;8.524;2022-12-07T13:57:27;6.15;;;2.53;;
46006;SDS011;31738;50.188;8.524;2022-12-07T13:59:59;9.45;;;3.20;;
46006;SDS011;31738;50.188;8.524;2022-12-07T14:02:29;6.18;;;3.10;;
46006;SDS011;31738;50.188;8.524;2022-12-07T14:08:02;7.45;;;2.40;;
46006;SDS011;31738;50.188;8.524;2022-12-07T14:16:03;6.40;;;2.20;;
46006;SDS011;31738;50.188;8.524;2022-12-07T14:18:50;4.78;;;1.60;;
46006;SDS011;31738;50.188;8.524;2022-12-07T14:21:17;5.78;;;1.70;;
46006;SDS011;31738;50.188;8.524;2022-12-07T14:23:45;5.07;;;1.50;;
46006;SDS011;31738;50.188;8.524;2022-12-07T14:26:26;6.63;;;1.45;;
46006;SDS011;31738;50.188;8.524;2022-12-07T14:28:52;3.58;;;2.00;;
46006;SDS011;31738;50.188;8.524;2022-12-07T14:31:18;4.93;;;1.67;;
46006;SDS011;31738;50.188;8.524;2022-12-07T14:33:49;5.43;;;2.15;;
46006;SDS011;31738;50.188;8.524;2022-12-07T14:36:14;8.15;;;1.73;;
46006;SDS011;31738;50.188;8.524;2022-12-07T14:38:40;4.30;;;1.88;;
46006;SDS011;31738;50.188;8.524;2022-12-07T14:41:09;8.32;;;1.73;;
46006;SDS011;31738;50.188;8.524;2022-12-07T14:43:59;5.75;;;1.95;;
46006;SDS011;31738;50.188;8.524;2022-12-07T14:46:25;4.13;;;2.08;;
46006;SDS011;31738;50.188;8.524;2022-12-07T14:48:51;5.60;;;2.10;;
46006;SDS011;31738;50.188;8.524;2022-12-07T14:51:16;9.85;;;2.10;;
46006;SDS011;31738;50.188;8.524;2022-12-07T14:53:44;7.95;;;2.50;;
46006;SDS011;31738;50.188;8.524;2022-12-07T14:56:17;4.55;;;2.08;;
46006;SDS011;31738;50.188;8.524;2022-12-07T14:58:43;6.18;;;2.00;;
46006;SDS011;31738;50.188;8.524;2022-12-07T15:01:13;6.47;;;2.13;;
46006;SDS011;31738;50.188;8.524;2022-12-07T15:03:42;6.90;;;2.30;;
46006;SDS011;31738;50.188;8.524;2022-12-07T15:06:10;10.27;;;2.72;;
46006;SDS011;31738;50.188;8.524;2022-12-07T15:08:39;7.53;;;2.22;;
46006;SDS011;31738;50.188;8.524;2022-12-07T15:13:56;8.43;;;2.33;;
46006;SDS011;31738;50.188;8.524;2022-12-07T15:16:48;8.65;;;3.03;;
46006;SDS011;31738;50.188;8.524;2022-12-07T15:19:31;6.88;;;2.60;;
46006;SDS011;31738;50.188;8.524;2022-12-07T15:21:57;5.78;;;2.50;;
46006;SDS011;31738;50.188;8.524;2022-12-07T15:24:25;8.52;;;3.13;;
46006;SDS011;31738;50.188;8.524;2022-12-07T15:26:57;7.65;;;3.00;;
46006;SDS011;31738;50.188;8.524;2022-12-07T15:29:26;5.80;;;2.95;;
46006;SDS011;31738;50.188;8.524;2022-12-07T15:31:53;6.95;;;3.10;;
46006;SDS011;31738;50.188;8.524;2022-12-07T15:34:32;6.57;;;3.00;;
46006;SDS011;31738;50.188;8.524;2022-12-07T15:37:01;9.57;;;3.33;;
46006;SDS011;31738;50.188;8.524;2022-12-07T15:42:02;5.50;;;2.72;;
46006;SDS011;31738;50.188;8.524;2022-12-07T15:44:28;6.97;;;3.30;;
46006;SDS011;31738;50.188;8.524;2022-12-07T15:47:12;9.30;;;3.50;;
46006;SDS011;31738;50.188;8.524;2022-12-07T15:49:43;10.63;;;3.78;;
46006;SDS011;31738;50.188;8.524;2022-12-07T15:52:09;8.75;;;3.65;;
46006;SDS011;31738;50.188;8.524;2022-12-07T15:54:35;9.25;;;3.90;;
46006;SDS011;31738;50.188;8.524;2022-12-07T15:57:01;10.65;;;4.22;;
46006;SDS011;31738;50.188;8.524;2022-12-07T15:59:27;8.43;;;3.65;;
46006;SDS011;31738;50.188;8.524;2022-12-07T16:01:53;8.40;;;4.05;;
46006;SDS011;31738;50.188;8.524;2022-12-07T16:04:19;10.73;;;3.45;;
46006;SDS011;31738;50.188;8.524;2022-12-07T16:06:45;11.80;;;3.28;;
46006;SDS011;31738;50.188;8.524;2022-12-07T16:09:10;8.35;;;2.85;;
46006;SDS011;31738;50.188;8.524;2022-12-07T16:11:36;11.00;;;3.13;;
46006;SDS011;31738;50.188;8.524;2022-12-07T16:14:01;8.43;;;3.78;;
46006;SDS011;31738;50.188;8.524;2022-12-07T16:16:27;9.85;;;3.92;;
46006;SDS011;31738;50.188;8.524;2022-12-07T16:18:53;8.20;;;4.07;;
46006;SDS011;31738;50.188;8.524;2022-12-07T16:21:19;8.45;;;4.40;;
46006;SDS011;31738;50.188;8.524;2022-12-07T16:23:45;10.88;;;3.90;;
46006;SDS011;31738;50.188;8.524;2022-12-07T16:26:15;14.38;;;4.60;;
46006;SDS011;31738;50.188;8.524;2022-12-07T16:28:43;16.10;;;4.78;;
46006;SDS011;31738;50.188;8.524;2022-12-07T16:31:13;12.30;;;4.43;;
46006;SDS011;31738;50.188;8.524;2022-12-07T16:33:40;11.15;;;4.70;;
46006;SDS011;31738;50.188;8.524;2022-12-07T16:36:07;10.00;;;4.63;;
46006;SDS011;31738;50.188;8.524;2022-12-07T16:38:35;11.02;;;4.60;;
46006;SDS011;31738;50.188;8.524;2022-12-07T16:41:00;9.05;;;4.88;;
46006;SDS011;31738;50.188;8.524;2022-12-07T16:43:26;13.02;;;5.03;;
46006;SDS011;31738;50.188;8.524;2022-12-07T16:45:51;10.27;;;4.47;;
46006;SDS011;31738;50.188;8.524;2022-12-07T16:48:17;11.00;;;3.90;;
46006;SDS011;31738;50.188;8.524;2022-12-07T16:50:43;10.52;;;4.00;;
46006;SDS011;31738;50.188;8.524;2022-12-07T16:53:10;8.77;;;3.60;;
46006;SDS011;31738;50.188;8.524;2022-12-07T16:55:36;8.18;;;3.78;;
46006;SDS011;31738;50.188;8.524;2022-12-07T16:58:03;10.93;;;3.67;;
46006;SDS011;31738;50.188;8.524;2022-12-07T17:00:28;9.35;;;4.05;;
46006;SDS011;31738;50.188;8.524;2022-12-07T17:02:54;10.68;;;3.47;;
46006;SDS011;31738;50.188;8.524;2022-12-07T17:05:20;8.35;;;3.63;;
46006;SDS011;31738;50.188;8.524;2022-12-07T17:07:45;11.63;;;3.90;;
46006;SDS011;31738;50.188;8.524;2022-12-07T17:10:11;8.55;;;3.95;;
46006;SDS011;31738;50.188;8.524;2022-12-07T17:12:36;10.57;;;4.18;;
46006;SDS011;31738;50.188;8.524;2022-12-07T17:15:02;8.90;;;4.57;;
46006;SDS011;31738;50.188;8.524;2022-12-07T17:17:53;10.13;;;4.60;;
46006;SDS011;31738;50.188;8.524;2022-12-07T17:20:20;7.25;;;3.88;;
46006;SDS011;31738;50.188;8.524;2022-12-07T17:22:48;11.48;;;3.92;;
46006;SDS011;31738;50.188;8.524;2022-12-07T17:25:15;10.77;;;3.97;;
46006;SDS011;31738;50.188;8.524;2022-12-07T17:27:41;8.13;;;3.80;;